Time;durP1;ratioP1;P1;durP2;ratioP2;P2;SDS_P1;SDS_P2;PMS_P1;PMS_P2;Temp;Humidity;BMP_temperature;BMP_pressure;BME280_temperature;BME280_humidity;BME280_pressure;Samples;Min_cycle;Max_cycle;Signal;HPM_P1;HPM_P2
2023/05/10 00:02:00;;;;;;;0.47;0.47;;;16.00;99.90;;;;;;5033132;28;20263;-64
2023/05/10 00:04:28;;;;;;;0.30;0.30;;;16.10;99.90;;;;;;5032796;28;20247;-64
2023/05/10 00:06:54;;;;;;;0.33;0.33;;;16.10;99.90;;;;;;5033412;28;20204;-64
2023/05/10 00:09:21;;;;;;;0.40;0.40;;;16.10;99.90;;;;;;5031929;28;20878;-64
2023/05/10 00:11:48;;;;;;;0.47;0.47;;;16.10;99.90;;;;;;5033225;28;20241;-64
2023/05/10 00:14:15;;;;;;;0.40;0.40;;;16.20;99.90;;;;;;5034981;28;20215;-64
2023/05/10 00:16:43;;;;;;;0.40;0.40;;;16.00;99.90;;;;;;5033183;28;20670;-65
2023/05/10 00:19:10;;;;;;;0.37;0.37;;;16.10;99.90;;;;;;5032930;28;20201;-64
2023/05/10 00:21:37;;;;;;;0.30;0.30;;;16.10;99.90;;;;;;5033010;28;20315;-64
2023/05/10 00:24:04;;;;;;;0.67;0.67;;;16.10;99.90;;;;;;5033412;28;20208;-64
2023/05/10 00:26:31;;;;;;;0.30;0.30;;;16.00;99.90;;;;;;5032707;28;20640;-64
2023/05/10 00:28:58;;;;;;;0.50;0.50;;;16.10;99.90;;;;;;5033000;28;20212;-64
2023/05/10 00:31:25;;;;;;;0.40;0.40;;;16.10;99.90;;;;;;5032473;28;20224;-64
2023/05/10 00:33:53;;;;;;;0.33;0.33;;;16.10;99.90;;;;;;5032608;28;20299;-64
2023/05/10 00:36:20;;;;;;;0.30;0.30;;;16.10;99.90;;;;;;5031722;28;20204;-64
2023/05/10 00:38:47;;;;;;;0.47;0.47;;;16.20;99.90;;;;;;5033638;28;20214;-64
2023/05/10 00:41:14;;;;;;;0.60;0.30;;;16.20;99.90;;;;;;5032727;28;20228;-64
2023/05/10 00:43:41;;;;;;;0.20;0.20;;;16.30;99.90;;;;;;5033297;28;20231;-64
2023/05/10 00:46:08;;;;;;;0.30;0.30;;;16.30;99.90;;;;;;5032418;28;20211;-64
2023/05/10 00:48:36;;;;;;;0.30;0.30;;;16.40;99.90;;;;;;5032015;28;20204;-64
2023/05/10 00:51:04;;;;;;;0.40;0.40;;;16.60;99.90;;;;;;5031641;28;20224;-64
2023/05/10 00:53:33;;;;;;;0.33;0.33;;;16.40;99.90;;;;;;5032163;28;20209;-64
2023/05/10 00:56:00;;;;;;;0.30;0.30;;;16.40;99.90;;;;;;5031919;28;20675;-64
2023/05/10 00:58:28;;;;;;;0.40;0.40;;;16.40;99.90;;;;;;5032515;28;20208;-64
2023/05/10 01:00:56;;;;;;;0.27;0.27;;;16.40;99.90;;;;;;5031611;28;20232;-65
2023/05/10 01:03:22;;;;;;;0.20;0.20;;;16.40;99.90;;;;;;5032073;28;20200;-64
2023/05/10 01:05:49;;;;;;;0.23;0.23;;;16.40;99.90;;;;;;5032135;28;20246;-64
2023/05/10 01:08:18;;;;;;;0.30;0.30;;;16.50;99.90;;;;;;5031446;28;20232;-64
2023/05/10 01:10:46;;;;;;;0.20;0.20;;;16.50;99.90;;;;;;5031411;28;20316;-64
2023/05/10 01:13:13;;;;;;;0.30;0.30;;;16.50;99.90;;;;;;5031496;28;20315;-64
2023/05/10 01:15:41;;;;;;;0.50;0.50;;;16.50;99.90;;;;;;5031990;28;20208;-64
2023/05/10 01:18:10;;;;;;;0.60;0.60;;;16.50;99.90;;;;;;5031369;28;20208;-64
2023/05/10 01:20:44;;;;;;;0.20;0.20;;;16.50;99.90;;;;;;5030766;28;20220;-64
2023/05/10 01:23:46;;;;;;;0.43;0.40;;;16.50;99.90;;;;;;5031373;28;20215;-64
2023/05/10 01:26:36;;;;;;;0.40;0.30;;;16.40;99.90;;;;;;5009072;28;20256;-64
2023/05/10 01:29:18;;;;;;;0.20;0.20;;;16.30;99.90;;;;;;5031200;28;20204;-64
2023/05/10 01:32:07;;;;;;;0.30;0.30;;;16.30;99.90;;;;;;5031036;28;20269;-64
2023/05/10 01:34:39;;;;;;;0.40;0.40;;;16.20;99.90;;;;;;5031434;28;20292;-64
2023/05/10 01:37:11;;;;;;;0.30;0.30;;;16.20;99.90;;;;;;5031429;28;20196;-64
2023/05/10 01:39:45;;;;;;;0.30;0.30;;;16.10;99.90;;;;;;5032081;28;20212;-64
2023/05/10 01:42:16;;;;;;;0.30;0.27;;;16.10;99.90;;;;;;5031270;28;20677;-64
2023/05/10 01:44:50;;;;;;;0.40;0.40;;;16.10;99.90;;;;;;5030936;28;20200;-64
2023/05/10 01:47:25;;;;;;;0.53;0.30;;;16.10;99.90;;;;;;5023974;28;20244;-64
2023/05/10 01:49:55;;;;;;;0.30;0.30;;;16.10;99.90;;;;;;5030569;28;20204;-63
2023/05/10 01:52:31;;;;;;;0.57;0.37;;;16.10;99.90;;;;;;5030942;28;20220;-63
2023/05/10 01:55:03;;;;;;;0.30;0.30;;;16.10;99.90;;;;;;5031000;28;20204;-64
2023/05/10 01:57:35;;;;;;;0.43;0.40;;;16.10;99.90;;;;;;5031075;28;20208;-63
2023/05/10 02:00:04;;;;;;;0.30;0.30;;;16.00;99.90;;;;;;5030582;28;20290;-63
2023/05/10 02:02:37;;;;;;;0.30;0.30;;;16.00;99.90;;;;;;5031207;28;20232;-63
2023/05/10 02:05:07;;;;;;;0.40;0.40;;;16.00;99.90;;;;;;5031395;28;20204;-64
2023/05/10 02:07:36;;;;;;;0.40;0.40;;;16.00;99.90;;;;;;5030794;28;20204;-65
2023/05/10 02:10:05;;;;;;;0.30;0.30;;;15.90;99.90;;;;;;5030368;28;20200;-64
2023/05/10 02:12:35;;;;;;;0.38;0.38;;;15.90;99.90;;;;;;5030462;28;20596;-63
2023/05/10 02:15:05;;;;;;;0.50;0.50;;;15.90;99.90;;;;;;5030864;28;20208;-64
2023/05/10 02:17:35;;;;;;;0.40;0.40;;;15.90;99.90;;;;;;5030587;28;20258;-65
2023/05/10 02:20:03;;;;;;;0.40;0.40;;;15.90;99.90;;;;;;5028859;28;20227;-64
2023/05/10 02:22:31;;;;;;;0.50;0.50;;;15.90;99.90;;;;;;5030205;28;20243;-64
2023/05/10 02:24:59;;;;;;;0.77;0.77;;;15.80;99.90;;;;;;5030064;28;20208;-64
2023/05/10 02:27:28;;;;;;;0.50;0.50;;;15.70;99.90;;;;;;5030182;28;20581;-64
2023/05/10 02:29:56;;;;;;;0.50;0.50;;;15.70;99.90;;;;;;5029573;28;20211;-64
2023/05/10 02:32:24;;;;;;;0.67;0.67;;;15.70;99.90;;;;;;5030063;28;20235;-64
2023/05/10 02:34:54;;;;;;;0.27;0.27;;;15.60;99.90;;;;;;5030178;28;20221;-64
2023/05/10 02:37:22;;;;;;;0.53;0.53;;;15.70;99.90;;;;;;5029895;28;20240;-63
2023/05/10 02:39:50;;;;;;;0.50;0.50;;;15.70;99.90;;;;;;5029768;28;20208;-63
2023/05/10 02:42:19;;;;;;;0.40;0.40;;;15.70;99.90;;;;;;5030919;28;20593;-63
2023/05/10 02:44:48;;;;;;;0.47;0.47;;;15.70;99.90;;;;;;5031089;28;20204;-63
2023/05/10 02:47:15;;;;;;;0.50;0.50;;;15.70;99.90;;;;;;5030283;28;20248;-64
2023/05/10 02:49:42;;;;;;;0.40;0.40;;;15.80;99.90;;;;;;5028648;28;20212;-64
2023/05/10 02:52:12;;;;;;;0.50;0.50;;;15.80;99.90;;;;;;5029631;28;20703;-64
2023/05/10 02:54:45;;;;;;;0.43;0.43;;;15.80;99.90;;;;;;5029902;28;20208;-64
2023/05/10 02:57:17;;;;;;;0.50;0.50;;;15.80;99.90;;;;;;5029655;28;20212;-63
2023/05/10 02:59:44;;;;;;;0.60;0.60;;;15.90;99.90;;;;;;5028854;28;20220;-65
2023/05/10 03:02:13;;;;;;;0.40;0.40;;;15.80;99.90;;;;;;5029491;28;20255;-64
2023/05/10 03:04:40;;;;;;;0.50;0.50;;;15.80;99.90;;;;;;5029719;28;20226;-62
2023/05/10 03:07:07;;;;;;;0.50;0.50;;;15.80;99.90;;;;;;5029976;28;20204;-64
2023/05/10 03:09:35;;;;;;;0.40;0.40;;;15.80;99.90;;;;;;5028975;28;20210;-64
2023/05/10 03:12:08;;;;;;;0.53;0.53;;;15.90;99.90;;;;;;5029704;28;20229;-63
2023/05/10 03:14:46;;;;;;;0.50;0.50;;;15.90;99.90;;;;;;5029535;28;20211;-64
2023/05/10 03:17:23;;;;;;;0.70;0.70;;;15.90;99.90;;;;;;5029415;28;20307;-64
2023/05/10 03:19:55;;;;;;;0.67;0.67;;;15.90;99.90;;;;;;5030138;28;20214;-64
2023/05/10 03:22:26;;;;;;;0.50;0.50;;;15.80;99.90;;;;;;5030283;28;20591;-64
2023/05/10 03:24:56;;;;;;;1.73;0.70;;;15.80;99.90;;;;;;5030654;28;20683;-64
2023/05/10 03:27:24;;;;;;;0.50;0.50;;;15.80;99.90;;;;;;5030133;28;20743;-63
2023/05/10 03:29:53;;;;;;;0.53;0.53;;;15.80;99.90;;;;;;5030616;28;20577;-65
2023/05/10 03:32:20;;;;;;;0.40;0.40;;;15.70;99.90;;;;;;5034816;28;20228;-65
2023/05/10 03:34:47;;;;;;;0.80;0.80;;;15.70;99.90;;;;;;5034462;28;20831;-63
2023/05/10 03:37:13;;;;;;;0.60;0.60;;;15.80;99.90;;;;;;5033548;28;20587;-66
2023/05/10 03:39:40;;;;;;;0.60;0.60;;;15.70;99.90;;;;;;5033574;28;20208;-65
2023/05/10 03:42:11;;;;;;;1.13;0.63;;;15.80;99.90;;;;;;5036183;28;20239;-64
2023/05/10 03:44:38;;;;;;;1.17;0.60;;;15.70;99.90;;;;;;5035120;28;20208;-65
2023/05/10 03:47:05;;;;;;;0.70;0.70;;;15.70;99.90;;;;;;5035316;28;20279;-65
2023/05/10 03:49:32;;;;;;;0.70;0.70;;;15.70;99.90;;;;;;5034948;28;20205;-66
2023/05/10 03:51:58;;;;;;;0.77;0.77;;;15.70;99.90;;;;;;5033490;28;20217;-66
2023/05/10 03:54:26;;;;;;;0.67;0.67;;;15.60;99.90;;;;;;5032983;28;20255;-66
2023/05/10 03:56:52;;;;;;;0.57;0.57;;;15.60;99.90;;;;;;5033521;28;20201;-65
2023/05/10 03:59:20;;;;;;;0.67;0.67;;;15.50;99.90;;;;;;5032238;28;20288;-64
2023/05/10 04:01:47;;;;;;;1.67;0.90;;;15.40;99.90;;;;;;5032639;28;20232;-65
2023/05/10 04:04:14;;;;;;;0.60;0.60;;;15.40;99.90;;;;;;5032744;28;20304;-66
2023/05/10 04:06:41;;;;;;;1.40;0.70;;;15.30;99.90;;;;;;5032888;28;20219;-65
2023/05/10 04:09:08;;;;;;;2.67;0.77;;;15.30;99.90;;;;;;5032052;28;20257;-66
2023/05/10 04:11:35;;;;;;;0.40;0.40;;;15.40;99.90;;;;;;5032433;28;20329;-65
2023/05/10 04:14:01;;;;;;;0.50;0.50;;;15.40;99.90;;;;;;5033096;28;20299;-65
2023/05/10 04:16:30;;;;;;;0.40;0.40;;;15.40;99.90;;;;;;5031956;28;20330;-64
2023/05/10 04:18:57;;;;;;;0.50;0.50;;;15.50;99.90;;;;;;5033881;28;20295;-64
2023/05/10 04:21:24;;;;;;;0.60;0.60;;;15.40;99.90;;;;;;5032281;28;20695;-63
2023/05/10 04:23:51;;;;;;;0.50;0.50;;;15.40;99.90;;;;;;5033301;28;20200;-64
2023/05/10 04:26:18;;;;;;;0.40;0.40;;;15.50;99.90;;;;;;5032517;28;20215;-64
2023/05/10 04:28:44;;;;;;;0.63;0.63;;;15.40;99.90;;;;;;5032039;28;20382;-65
2023/05/10 04:31:12;;;;;;;0.60;0.50;;;15.40;99.90;;;;;;5031644;28;20722;-64
2023/05/10 04:33:40;;;;;;;0.40;0.40;;;15.40;99.90;;;;;;5033109;28;20204;-63
2023/05/10 04:36:07;;;;;;;0.40;0.40;;;15.40;99.90;;;;;;5029796;28;20291;-63
2023/05/10 04:38:34;;;;;;;0.30;0.30;;;15.50;99.90;;;;;;5044671;28;20674;-63
2023/05/10 04:41:07;;;;;;;0.27;0.27;;;15.50;99.90;;;;;;5042501;28;20227;-62
2023/05/10 04:43:34;;;;;;;1.33;0.60;;;15.50;99.90;;;;;;5032046;28;20201;-63
2023/05/10 04:46:01;;;;;;;0.37;0.37;;;15.50;99.90;;;;;;5032765;28;20196;-64
2023/05/10 04:48:28;;;;;;;0.40;0.40;;;15.60;99.90;;;;;;5031669;28;20212;-65
2023/05/10 04:50:56;;;;;;;0.60;0.60;;;15.70;99.90;;;;;;5032536;28;20232;-64
2023/05/10 04:53:23;;;;;;;0.60;0.60;;;15.70;99.90;;;;;;5031994;28;20251;-64
2023/05/10 04:55:50;;;;;;;0.40;0.40;;;15.70;99.90;;;;;;5032346;28;20208;-66
2023/05/10 04:58:16;;;;;;;0.40;0.40;;;15.80;99.90;;;;;;5031809;28;20291;-64
2023/05/10 05:00:43;;;;;;;0.40;0.40;;;15.70;99.90;;;;;;5030883;28;20881;-64
2023/05/10 05:03:10;;;;;;;0.40;0.40;;;15.60;99.90;;;;;;5031706;28;20208;-65
2023/05/10 05:05:37;;;;;;;0.70;0.70;;;15.50;99.90;;;;;;5031915;28;20207;-65
2023/05/10 05:08:05;;;;;;;0.60;0.60;;;15.50;99.90;;;;;;5031743;28;20204;-65
2023/05/10 05:10:32;;;;;;;0.60;0.50;;;15.60;99.90;;;;;;5030695;28;20213;-64
2023/05/10 05:12:59;;;;;;;0.60;0.60;;;15.60;99.90;;;;;;5031372;28;20208;-64
2023/05/10 05:15:26;;;;;;;0.70;0.70;;;15.60;99.90;;;;;;5031760;28;20709;-63
2023/05/10 05:17:53;;;;;;;0.80;0.80;;;15.70;99.90;;;;;;5030721;28;20212;-64
2023/05/10 05:20:20;;;;;;;0.57;0.57;;;15.60;99.90;;;;;;5031807;28;20694;-64
2023/05/10 05:22:46;;;;;;;0.70;0.70;;;15.60;99.90;;;;;;5032291;28;20251;-65
2023/05/10 05:25:15;;;;;;;0.70;0.70;;;15.60;99.90;;;;;;5032492;28;20211;-65
2023/05/10 05:27:42;;;;;;;0.30;0.30;;;15.40;99.90;;;;;;5032514;28;20209;-64
2023/05/10 05:30:10;;;;;;;0.50;0.50;;;15.40;99.90;;;;;;5031709;28;20857;-63
2023/05/10 05:32:37;;;;;;;1.17;0.70;;;15.40;99.90;;;;;;5032127;28;20655;-64
2023/05/10 05:35:04;;;;;;;0.43;0.43;;;15.40;99.90;;;;;;5031055;28;20292;-61
2023/05/10 05:37:31;;;;;;;0.50;0.50;;;15.30;99.90;;;;;;5034274;28;20327;-63
2023/05/10 05:39:58;;;;;;;0.57;0.57;;;15.40;99.90;;;;;;5039659;28;20568;-64
2023/05/10 05:42:26;;;;;;;0.40;0.40;;;15.50;99.90;;;;;;5030691;28;20224;-63
2023/05/10 05:44:53;;;;;;;0.60;0.60;;;15.40;99.90;;;;;;5030668;28;20206;-63
2023/05/10 05:47:20;;;;;;;0.70;0.70;;;15.40;99.90;;;;;;5031104;28;20201;-64
2023/05/10 05:49:46;;;;;;;0.40;0.40;;;15.40;99.90;;;;;;5029846;28;20839;-62
2023/05/10 05:52:14;;;;;;;0.50;0.50;;;15.40;99.90;;;;;;5036238;28;20245;-64
2023/05/10 05:54:40;;;;;;;0.60;0.60;;;15.50;99.90;;;;;;5043023;28;20212;-63
2023/05/10 05:57:07;;;;;;;0.60;0.60;;;15.60;99.90;;;;;;5034393;28;20211;-63
2023/05/10 05:59:35;;;;;;;0.40;0.40;;;15.60;99.90;;;;;;5040988;28;20689;-63
2023/05/10 06:02:02;;;;;;;0.30;0.30;;;15.60;99.90;;;;;;5051338;28;20240;-63
2023/05/10 06:04:29;;;;;;;0.50;0.50;;;15.60;99.90;;;;;;5051024;28;20218;-64
2023/05/10 06:06:56;;;;;;;0.40;0.40;;;15.60;99.90;;;;;;5049712;28;20258;-64
2023/05/10 06:09:24;;;;;;;0.50;0.50;;;15.70;99.90;;;;;;5049715;28;21325;-64
2023/05/10 06:11:51;;;;;;;0.33;0.33;;;15.70;99.90;;;;;;5050026;28;20259;-64
2023/05/10 06:14:17;;;;;;;0.40;0.40;;;15.80;99.90;;;;;;5050425;28;20211;-64
2023/05/10 06:16:46;;;;;;;0.37;0.37;;;15.90;99.90;;;;;;5050065;28;20295;-63
2023/05/10 06:19:13;;;;;;;0.40;0.40;;;15.80;99.90;;;;;;5049522;28;20587;-64
2023/05/10 06:21:40;;;;;;;0.50;0.50;;;15.90;99.90;;;;;;5049941;28;20247;-64
2023/05/10 06:24:07;;;;;;;0.57;0.57;;;15.90;99.90;;;;;;5050618;28;20204;-64
2023/05/10 06:26:34;;;;;;;0.60;0.60;;;15.90;99.90;;;;;;5050253;28;20203;-64
2023/05/10 06:29:01;;;;;;;0.60;0.60;;;15.90;99.90;;;;;;5051996;28;20206;-64
2023/05/10 06:31:28;;;;;;;0.40;0.40;;;15.90;99.90;;;;;;5049552;28;20227;-63
2023/05/10 06:33:57;;;;;;;0.60;0.40;;;15.90;99.90;;;;;;5051316;28;20204;-64
2023/05/10 06:36:26;;;;;;;0.47;0.47;;;15.80;99.90;;;;;;5051111;28;20298;-64
2023/05/10 06:38:53;;;;;;;0.27;0.27;;;15.80;99.90;;;;;;5051030;28;20690;-62
2023/05/10 06:41:20;;;;;;;0.60;0.60;;;15.70;99.90;;;;;;5049897;28;20224;-64
2023/05/10 06:43:47;;;;;;;0.40;0.40;;;15.80;99.90;;;;;;5050690;28;20741;-64
2023/05/10 06:46:14;;;;;;;0.40;0.40;;;15.80;99.90;;;;;;5051301;28;20208;-64
2023/05/10 06:48:41;;;;;;;0.47;0.47;;;15.80;99.90;;;;;;5053028;28;20204;-63
2023/05/10 06:51:09;;;;;;;0.30;0.30;;;15.90;99.90;;;;;;5056486;28;20334;-64
2023/05/10 06:53:35;;;;;;;0.47;0.47;;;15.90;99.90;;;;;;5056896;28;20200;-64
2023/05/10 06:56:03;;;;;;;0.43;0.43;;;15.90;99.90;;;;;;5051168;28;20199;-63
2023/05/10 06:58:30;;;;;;;0.40;0.40;;;15.80;99.90;;;;;;5050765;28;20204;-64
2023/05/10 07:01:03;;;;;;;0.40;0.40;;;15.90;99.90;;;;;;5048965;28;20231;-65
2023/05/10 07:03:29;;;;;;;0.20;0.20;;;15.90;99.90;;;;;;5049484;28;20226;-65
2023/05/10 07:06:02;;;;;;;0.30;0.30;;;15.70;99.90;;;;;;5053654;28;20204;-65
2023/05/10 07:08:31;;;;;;;0.30;0.30;;;15.70;99.90;;;;;;5056444;28;20238;-65
2023/05/10 07:11:03;;;;;;;0.37;0.20;;;15.70;99.90;;;;;;5054842;28;20239;-65
2023/05/10 07:13:30;;;;;;;0.30;0.30;;;15.70;99.90;;;;;;5056595;28;20200;-64
2023/05/10 07:15:58;;;;;;;0.50;0.50;;;15.80;99.90;;;;;;5056430;28;20257;-64
2023/05/10 07:18:24;;;;;;;0.40;0.40;;;15.80;99.90;;;;;;5056376;28;20306;-65
2023/05/10 07:20:51;;;;;;;0.40;0.40;;;15.80;99.90;;;;;;5056868;28;20207;-64
2023/05/10 07:23:19;;;;;;;0.50;0.50;;;15.90;99.90;;;;;;5057404;28;20641;-65
2023/05/10 07:25:47;;;;;;;0.30;0.30;;;16.00;99.90;;;;;;5057427;28;20234;-65
2023/05/10 07:28:14;;;;;;;0.30;0.30;;;16.00;99.90;;;;;;5056030;28;20224;-65
2023/05/10 07:30:41;;;;;;;0.30;0.30;;;16.10;99.90;;;;;;5055236;28;20753;-64
2023/05/10 07:33:09;;;;;;;0.20;0.20;;;16.10;99.90;;;;;;5055903;28;20210;-64
2023/05/10 07:35:36;;;;;;;0.30;0.30;;;16.30;99.90;;;;;;5055883;28;20564;-65
2023/05/10 07:38:03;;;;;;;0.40;0.40;;;16.30;99.90;;;;;;5055937;28;20213;-65
2023/05/10 07:40:30;;;;;;;0.17;0.17;;;16.40;99.90;;;;;;5055365;28;20204;-65
2023/05/10 07:42:59;;;;;;;0.60;0.60;;;16.40;99.90;;;;;;5055883;28;20241;-65
2023/05/10 07:45:26;;;;;;;0.87;0.30;;;16.50;99.90;;;;;;5056075;28;20204;-65
2023/05/10 07:47:53;;;;;;;0.20;0.20;;;16.60;99.90;;;;;;5055985;28;20690;-65
2023/05/10 07:50:20;;;;;;;0.40;0.40;;;16.60;99.90;;;;;;5055113;28;20227;-65
2023/05/10 07:52:47;;;;;;;0.63;0.63;;;16.60;99.90;;;;;;5055916;28;20224;-64
2023/05/10 07:55:14;;;;;;;0.47;0.47;;;16.70;99.90;;;;;;5056339;28;20242;-65
2023/05/10 07:57:41;;;;;;;0.60;0.60;;;16.80;99.90;;;;;;5055550;28;20214;-65
2023/05/10 08:00:17;;;;;;;0.30;0.30;;;16.80;99.90;;;;;;5054730;28;20213;-64
2023/05/10 08:02:44;;;;;;;0.47;0.47;;;16.90;99.90;;;;;;5055875;28;20486;-65
2023/05/10 08:05:11;;;;;;;0.50;0.50;;;16.90;99.90;;;;;;5056113;28;20204;-63
2023/05/10 08:07:37;;;;;;;0.50;0.50;;;16.80;99.90;;;;;;5055832;28;20204;-65
2023/05/10 08:10:06;;;;;;;0.50;0.50;;;16.90;99.90;;;;;;5054956;28;20211;-65
2023/05/10 08:12:33;;;;;;;0.50;0.50;;;17.00;99.90;;;;;;5056032;28;20655;-62
2023/05/10 08:15:00;;;;;;;0.93;0.63;;;17.00;99.90;;;;;;5055604;28;20203;-65
2023/05/10 08:17:28;;;;;;;0.60;0.60;;;17.00;99.90;;;;;;5052499;28;20218;-65
2023/05/10 08:19:55;;;;;;;0.47;0.47;;;16.90;99.90;;;;;;5051900;28;20698;-64
2023/05/10 08:22:22;;;;;;;0.50;0.50;;;16.90;99.90;;;;;;5052475;28;20227;-64
2023/05/10 08:24:49;;;;;;;0.40;0.40;;;16.90;99.90;;;;;;5052518;28;20265;-63
2023/05/10 08:27:15;;;;;;;0.50;0.50;;;16.90;99.90;;;;;;5051103;28;20257;-63
2023/05/10 08:29:42;;;;;;;0.47;0.47;;;17.00;99.90;;;;;;5053138;28;20207;-63
2023/05/10 08:32:09;;;;;;;0.50;0.50;;;17.20;99.90;;;;;;5053723;28;20595;-63
2023/05/10 08:34:37;;;;;;;0.47;0.47;;;17.30;99.90;;;;;;5053438;28;20207;-65
2023/05/10 08:37:04;;;;;;;0.40;0.40;;;17.40;99.90;;;;;;5053176;28;20208;-63
2023/05/10 08:39:35;;;;;;;1.10;1.10;;;17.40;99.90;;;;;;5051934;28;20200;-65
2023/05/10 08:42:04;;;;;;;0.90;0.90;;;17.40;99.90;;;;;;5051991;28;20309;-65
2023/05/10 08:44:33;;;;;;;0.80;0.80;;;17.20;99.90;;;;;;5052827;28;20214;-66
2023/05/10 08:47:03;;;;;;;1.47;0.80;;;17.20;99.90;;;;;;5051984;28;20215;-63
2023/05/10 08:49:32;;;;;;;0.50;0.50;;;17.00;99.90;;;;;;5051800;28;20208;-66
2023/05/10 08:52:04;;;;;;;0.50;0.50;;;16.80;99.90;;;;;;5052787;28;20216;-63
2023/05/10 08:54:32;;;;;;;2.13;1.00;;;16.70;99.90;;;;;;5053050;28;20203;-63
2023/05/10 08:56:59;;;;;;;1.13;0.80;;;16.30;99.90;;;;;;5052851;28;20214;-65
2023/05/10 08:59:25;;;;;;;0.50;0.50;;;16.00;99.90;;;;;;5051926;28;20211;-64
2023/05/10 09:01:55;;;;;;;0.57;0.40;;;15.50;99.90;;;;;;5051857;28;20216;-63
2023/05/10 09:04:22;;;;;;;0.50;0.50;;;15.20;99.90;;;;;;5051464;28;20752;-63
2023/05/10 09:06:49;;;;;;;0.60;0.60;;;15.00;99.90;;;;;;5051553;28;20269;-63
2023/05/10 09:09:18;;;;;;;0.43;0.43;;;14.90;99.90;;;;;;5049575;28;20576;-63
2023/05/10 09:11:45;;;;;;;2.63;0.83;;;15.10;99.90;;;;;;5051044;28;20236;-62
2023/05/10 09:14:14;;;;;;;0.40;0.40;;;15.30;99.90;;;;;;5051488;28;20208;-65
2023/05/10 09:16:41;;;;;;;0.30;0.30;;;15.30;99.90;;;;;;5051682;28;20222;-65
2023/05/10 09:19:09;;;;;;;0.50;0.50;;;15.30;99.90;;;;;;5050760;28;20206;-65
2023/05/10 09:21:38;;;;;;;0.40;0.40;;;15.40;99.90;;;;;;5051886;28;20228;-63
2023/05/10 09:24:05;;;;;;;0.47;0.47;;;15.60;99.90;;;;;;5052303;28;20227;-63
2023/05/10 09:26:35;;;;;;;0.50;0.50;;;15.70;99.90;;;;;;5051343;28;20258;-65
2023/05/10 09:29:03;;;;;;;0.47;0.47;;;15.80;99.90;;;;;;5051898;28;20550;-63
2023/05/10 09:31:46;;;;;;;0.67;0.67;;;16.00;99.90;;;;;;5051106;28;20228;-64
2023/05/10 09:34:16;;;;;;;1.33;0.63;;;16.30;99.90;;;;;;5051911;28;20659;-65
2023/05/10 09:36:56;;;;;;;0.50;0.50;;;16.40;99.90;;;;;;5051448;28;20794;-63
2023/05/10 09:39:31;;;;;;;0.47;0.47;;;16.40;99.90;;;;;;5050768;28;20203;-65
2023/05/10 09:42:01;;;;;;;0.50;0.50;;;16.50;99.90;;;;;;5051439;28;20224;-64
2023/05/10 09:44:28;;;;;;;0.60;0.60;;;16.50;99.90;;;;;;5050689;28;20199;-65
2023/05/10 09:46:54;;;;;;;0.70;0.70;;;16.50;99.90;;;;;;5051128;28;20218;-63
2023/05/10 09:49:22;;;;;;;0.60;0.60;;;16.50;99.90;;;;;;5050540;28;20204;-65
2023/05/10 09:51:58;;;;;;;0.63;0.63;;;16.50;99.90;;;;;;5050640;28;20228;-63
2023/05/10 09:54:25;;;;;;;0.60;0.60;;;16.50;99.90;;;;;;5051206;28;20307;-63
2023/05/10 09:56:51;;;;;;;0.43;0.43;;;16.50;99.90;;;;;;5050942;28;20204;-63
2023/05/10 09:59:19;;;;;;;0.67;0.67;;;16.30;99.90;;;;;;5050142;28;20580;-63
2023/05/10 10:01:51;;;;;;;0.60;0.60;;;16.20;99.90;;;;;;5050472;28;20234;-65
2023/05/10 10:04:18;;;;;;;0.53;0.53;;;16.10;99.90;;;;;;5050461;28;20277;-63
2023/05/10 10:06:45;;;;;;;0.57;0.57;;;16.00;99.90;;;;;;5050554;28;20295;-63
2023/05/10 10:09:11;;;;;;;0.50;0.50;;;16.00;99.90;;;;;;5049696;28;20269;-63
2023/05/10 10:11:41;;;;;;;0.47;0.47;;;15.90;99.90;;;;;;5048822;28;20235;-63
2023/05/10 10:14:07;;;;;;;0.60;0.60;;;15.80;99.90;;;;;;5051981;28;20286;-65
2023/05/10 10:16:36;;;;;;;0.50;0.50;;;15.70;99.90;;;;;;5052060;28;20226;-63
2023/05/10 10:19:03;;;;;;;0.60;0.50;;;15.70;99.90;;;;;;5051527;28;20210;-62
2023/05/10 10:21:30;;;;;;;0.60;0.60;;;15.70;99.90;;;;;;5051643;28;20273;-63
2023/05/10 10:23:57;;;;;;;0.50;0.50;;;15.70;99.90;;;;;;5051318;28;20694;-63
2023/05/10 10:26:25;;;;;;;1.00;0.80;;;15.70;99.90;;;;;;5052042;28;20296;-63
2023/05/10 10:29:01;;;;;;;0.60;0.60;;;15.70;99.90;;;;;;5051557;28;20207;-63
2023/05/10 10:31:36;;;;;;;1.10;1.10;;;15.80;99.90;;;;;;5051377;28;20227;-63
2023/05/10 10:34:07;;;;;;;0.80;0.80;;;15.80;99.90;;;;;;5051785;28;20210;-63
2023/05/10 10:36:40;;;;;;;0.60;0.60;;;15.80;99.90;;;;;;5051284;28;20208;-63
2023/05/10 10:39:11;;;;;;;0.50;0.50;;;15.70;99.90;;;;;;5049605;28;20241;-63
2023/05/10 10:41:43;;;;;;;0.60;0.60;;;15.80;99.90;;;;;;5053980;28;20603;-63
2023/05/10 10:44:37;;;;;;;0.50;0.50;;;15.80;99.90;;;;;;5056272;28;20589;-63
2023/05/10 10:47:24;;;;;;;0.53;0.53;;;15.80;99.90;;;;;;5051587;28;20215;-70
2023/05/10 10:50:04;;;;;;;0.40;0.40;;;15.80;99.90;;;;;;5050251;28;20303;-63
2023/05/10 10:52:33;;;;;;;0.40;0.40;;;15.70;99.90;;;;;;5050627;28;20215;-63
2023/05/10 10:55:03;;;;;;;0.50;0.50;;;15.70;99.90;;;;;;5050587;28;20210;-63
2023/05/10 10:57:33;;;;;;;0.43;0.43;;;15.70;99.90;;;;;;5050729;28;20632;-62
2023/05/10 11:00:19;;;;;;;0.47;0.47;;;15.70;99.90;;;;;;5049573;28;20208;-62
2023/05/10 11:02:48;;;;;;;0.50;0.50;;;15.80;99.90;;;;;;5050454;28;20281;-63
2023/05/10 11:05:44;;;;;;;0.57;0.57;;;15.80;99.90;;;;;;5049910;28;20208;-63
2023/05/10 11:08:13;;;;;;;0.50;0.50;;;15.90;99.90;;;;;;5050142;28;20285;-63
2023/05/10 11:10:41;;;;;;;0.97;0.50;;;16.10;99.90;;;;;;5048737;28;20674;-63
2023/05/10 11:13:10;;;;;;;1.30;0.60;;;16.40;99.90;;;;;;5050163;28;20203;-65
2023/05/10 11:15:39;;;;;;;0.50;0.50;;;16.60;99.90;;;;;;5050295;28;20261;-65
2023/05/10 11:18:19;;;;;;;0.50;0.50;;;17.00;99.90;;;;;;5049776;28;20207;-65
2023/05/10 11:20:51;;;;;;;0.70;0.70;;;17.50;99.90;;;;;;5048982;28;20204;-65
2023/05/10 11:23:19;;;;;;;0.80;0.80;;;17.80;99.90;;;;;;5049896;28;20224;-64
2023/05/10 11:25:46;;;;;;;0.80;0.80;;;17.90;99.90;;;;;;5049870;28;20246;-65
2023/05/10 11:28:14;;;;;;;1.50;1.40;;;17.90;99.90;;;;;;5050527;28;20211;-64
2023/05/10 11:30:42;;;;;;;1.10;1.10;;;17.90;99.90;;;;;;5049317;28;20210;-63
2023/05/10 11:33:10;;;;;;;0.70;0.70;;;17.80;99.90;;;;;;5050498;28;20204;-66
2023/05/10 11:35:40;;;;;;;0.60;0.60;;;17.50;99.90;;;;;;5052662;28;20203;-63
2023/05/10 11:38:10;;;;;;;0.60;0.60;;;17.50;99.90;;;;;;5052514;28;20204;-64
2023/05/10 11:40:38;;;;;;;0.53;0.53;;;17.80;99.90;;;;;;5051281;28;20286;-63
2023/05/10 11:43:06;;;;;;;0.40;0.40;;;18.20;99.90;;;;;;5051015;28;20786;-63
2023/05/10 11:45:33;;;;;;;0.70;0.70;;;18.60;99.90;;;;;;5050947;28;20204;-64
2023/05/10 11:48:01;;;;;;;0.77;0.60;;;18.90;99.90;;;;;;5050574;28;20208;-64
2023/05/10 11:50:29;;;;;;;0.90;0.90;;;18.90;99.90;;;;;;5049274;28;20298;-63
2023/05/10 11:52:58;;;;;;;0.53;0.50;;;18.80;99.90;;;;;;5053065;28;21234;-63
2023/05/10 11:55:26;;;;;;;0.57;0.57;;;18.60;99.90;;;;;;5053626;28;20204;-64
2023/05/10 11:57:54;;;;;;;0.60;0.60;;;18.50;99.90;;;;;;5053626;28;20296;-62
2023/05/10 12:00:21;;;;;;;0.57;0.57;;;18.40;99.90;;;;;;5052558;28;20208;-63
2023/05/10 12:02:49;;;;;;;0.40;0.40;;;18.20;99.90;;;;;;5053289;28;20228;-62
2023/05/10 12:05:17;;;;;;;1.27;0.55;;;18.00;99.90;;;;;;5053559;28;20235;-62
2023/05/10 12:07:43;;;;;;;0.50;0.50;;;18.20;99.90;;;;;;5053567;28;20210;-63
2023/05/10 12:10:14;;;;;;;0.93;0.70;;;18.30;99.90;;;;;;5051184;28;20208;-63
2023/05/10 12:12:43;;;;;;;0.67;0.67;;;18.40;99.90;;;;;;5054411;28;20220;-64
2023/05/10 12:15:17;;;;;;;0.60;0.60;;;18.70;99.90;;;;;;5054267;28;20210;-65
2023/05/10 12:17:45;;;;;;;0.60;0.60;;;18.80;99.90;;;;;;5054072;28;20203;-63
2023/05/10 12:20:16;;;;;;;0.50;0.50;;;18.90;99.90;;;;;;5053773;28;20212;-63
2023/05/10 12:22:45;;;;;;;0.40;0.40;;;19.10;99.90;;;;;;5052146;28;20230;-63
2023/05/10 12:25:12;;;;;;;0.70;0.60;;;19.10;99.90;;;;;;5052874;28;20678;-63
2023/05/10 12:27:39;;;;;;;0.75;0.75;;;19.10;99.90;;;;;;5053066;28;20521;-63
2023/05/10 12:30:08;;;;;;;0.57;0.57;;;19.40;99.90;;;;;;5052184;28;20212;-63
2023/05/10 12:32:39;;;;;;;0.50;0.50;;;19.70;99.90;;;;;;5053079;28;20231;-66
2023/05/10 12:35:07;;;;;;;0.40;0.40;;;19.70;99.90;;;;;;5053258;28;20219;-62
2023/05/10 12:37:35;;;;;;;0.57;0.57;;;19.70;99.90;;;;;;5053458;28;20222;-64
2023/05/10 12:40:04;;;;;;;0.50;0.50;;;19.50;99.90;;;;;;5053378;28;20226;-63
2023/05/10 12:42:32;;;;;;;1.23;0.70;;;19.20;99.90;;;;;;5053509;28;20231;-66
2023/05/10 12:44:58;;;;;;;0.50;0.50;;;19.10;99.90;;;;;;5053392;28;20232;-63
2023/05/10 12:47:27;;;;;;;0.50;0.50;;;19.00;99.90;;;;;;5052979;28;20210;-63
2023/05/10 12:49:53;;;;;;;1.80;0.60;;;18.90;99.90;;;;;;5049902;28;20211;-63
2023/05/10 12:52:20;;;;;;;0.53;0.53;;;18.90;99.90;;;;;;5053557;28;20223;-64
2023/05/10 12:54:47;;;;;;;0.40;0.40;;;18.90;99.90;;;;;;5053195;28;20206;-63
2023/05/10 12:57:14;;;;;;;0.50;0.50;;;18.90;99.90;;;;;;5053517;28;20242;-63